Time;durP1;ratioP1;P1;durP2;ratioP2;P2;SDS_P1;SDS_P2;PMS_P1;PMS_P2;Temp;Humidity;BMP_temperature;BMP_pressure;BME280_temperature;BME280_humidity;BME280_pressure;Samples;Min_cycle;Max_cycle;Signal;HPM_P1;HPM_P2
2024/01/02 00:00:52;;;;;;;55.50;2.13;;;;;;;;;;5053036;28;20460;-70
2024/01/02 00:03:19;;;;;;;55.23;2.20;;;;;;;;;;5049694;28;20485;-70
2024/01/02 00:05:46;;;;;;;55.37;1.90;;;;;;;;;;5048877;28;20447;-70
2024/01/02 00:08:13;;;;;;;55.50;2.30;;;;;;;;;;5053628;28;20460;-70
2024/01/02 00:10:40;;;;;;;55.67;2.20;;;;;;;;;;5053569;28;20477;-70
2024/01/02 00:13:07;;;;;;;55.43;2.30;;;;;;;;;;5054251;28;20474;-70
2024/01/02 00:15:34;;;;;;;55.50;2.20;;;;;;;;;;5058561;28;20489;-70
2024/01/02 00:18:03;;;;;;;55.80;2.57;;;;;;;;;;5058803;28;20550;-70
2024/01/02 00:20:30;;;;;;;55.57;2.30;;;;;;;;;;5058643;28;20705;-70
2024/01/02 00:22:57;;;;;;;55.50;2.00;;;;;;;;;;5057814;28;20501;-70
2024/01/02 00:25:24;;;;;;;55.37;1.90;;;;;;;;;;5056122;28;20451;-70
2024/01/02 00:27:51;;;;;;;55.60;2.20;;;;;;;;;;5056458;28;20448;-70
2024/01/02 00:30:18;;;;;;;55.37;2.20;;;;;;;;;;5056584;28;20458;-70
2024/01/02 00:32:45;;;;;;;55.37;2.30;;;;;;;;;;5056194;28;20518;-70
2024/01/02 00:35:14;;;;;;;55.60;2.20;;;;;;;;;;5056454;28;20499;-70
2024/01/02 00:37:41;;;;;;;55.40;2.40;;;;;;;;;;5054909;28;20467;-70
2024/01/02 00:40:09;;;;;;;55.37;2.33;;;;;;;;;;5053596;28;20822;-70
2024/01/02 00:42:36;;;;;;;55.60;2.20;;;;;;;;;;5051616;28;20846;-69
2024/01/02 00:45:05;;;;;;;55.60;2.03;;;;;;;;;;5051639;28;20448;-69
2024/01/02 00:47:32;;;;;;;55.23;1.93;;;;;;;;;;5051514;28;20461;-70
2024/01/02 00:49:59;;;;;;;55.30;2.00;;;;;;;;;;5051746;28;20830;-69
2024/01/02 00:52:27;;;;;;;55.50;2.17;;;;;;;;;;5051164;28;20502;-70
2024/01/02 00:54:54;;;;;;;55.50;2.00;;;;;;;;;;5051259;28;21058;-70
2024/01/02 00:57:22;;;;;;;55.50;2.17;;;;;;;;;;5051297;28;20463;-70
2024/01/02 00:59:49;;;;;;;55.50;2.50;;;;;;;;;;5051379;28;20943;-70
2024/01/02 01:02:16;;;;;;;55.60;2.40;;;;;;;;;;5050921;28;20452;-70
2024/01/02 01:04:43;;;;;;;55.50;2.30;;;;;;;;;;5048536;28;20444;-70
2024/01/02 01:07:10;;;;;;;55.67;1.97;;;;;;;;;;5051186;28;20444;-70
2024/01/02 01:09:39;;;;;;;55.10;1.90;;;;;;;;;;5051070;28;21068;-69
2024/01/02 01:12:07;;;;;;;55.60;2.20;;;;;;;;;;5051184;28;20489;-70
2024/01/02 01:14:34;;;;;;;55.50;2.10;;;;;;;;;;5050838;28;20494;-70
2024/01/02 01:17:01;;;;;;;55.47;2.10;;;;;;;;;;5051050;28;20936;-70
2024/01/02 01:19:28;;;;;;;55.53;2.10;;;;;;;;;;5051063;28;20508;-70
2024/01/02 01:21:55;;;;;;;55.40;1.80;;;;;;;;;;5050691;28;20458;-70
2024/01/02 01:24:22;;;;;;;55.50;2.10;;;;;;;;;;5050844;28;20467;-70
2024/01/02 01:26:52;;;;;;;55.57;2.00;;;;;;;;;;5051102;28;20450;-70
2024/01/02 01:29:19;;;;;;;55.33;2.10;;;;;;;;;;5051037;28;20554;-70
2024/01/02 01:31:47;;;;;;;55.40;2.00;;;;;;;;;;5050870;28;20443;-70
2024/01/02 01:34:14;;;;;;;55.70;2.10;;;;;;;;;;5050323;28;20568;-70
2024/01/02 01:36:41;;;;;;;55.50;2.00;;;;;;;;;;5051086;28;20451;-70
2024/01/02 01:39:08;;;;;;;55.47;2.20;;;;;;;;;;5051043;28;20462;-70
2024/01/02 01:41:35;;;;;;;55.40;2.00;;;;;;;;;;5050731;28;20953;-70
2024/01/02 01:44:04;;;;;;;55.37;2.00;;;;;;;;;;5050695;28;20480;-70
2024/01/02 01:46:39;;;;;;;55.57;2.00;;;;;;;;;;5050767;28;20470;-70
2024/01/02 01:49:07;;;;;;;55.60;2.30;;;;;;;;;;5051104;28;20445;-70
2024/01/02 01:51:35;;;;;;;55.53;1.90;;;;;;;;;;5050934;28;20831;-70
2024/01/02 01:54:04;;;;;;;55.40;2.00;;;;;;;;;;5050383;28;21024;-70
2024/01/02 01:56:31;;;;;;;55.60;2.20;;;;;;;;;;5050646;28;20936;-70
2024/01/02 01:58:58;;;;;;;55.50;2.20;;;;;;;;;;5050793;28;20474;-70
2024/01/02 02:01:28;;;;;;;55.37;1.93;;;;;;;;;;5050883;28;20444;-69
2024/01/02 02:03:55;;;;;;;55.50;2.20;;;;;;;;;;5050383;28;20476;-70
2024/01/02 02:06:22;;;;;;;55.40;1.90;;;;;;;;;;5050834;28;20466;-69
2024/01/02 02:08:50;;;;;;;56.60;3.23;;;;;;;;;;5050906;28;20458;-70
2024/01/02 02:11:17;;;;;;;55.37;2.20;;;;;;;;;;5050629;28;20451;-70
2024/01/02 02:13:44;;;;;;;55.77;2.10;;;;;;;;;;5050091;28;20481;-69
2024/01/02 02:16:11;;;;;;;55.60;2.00;;;;;;;;;;5050294;28;20483;-69
2024/01/02 02:18:39;;;;;;;55.77;2.10;;;;;;;;;;5050922;28;20813;-69
2024/01/02 02:21:07;;;;;;;55.30;1.90;;;;;;;;;;5050654;28;20450;-69
2024/01/02 02:23:35;;;;;;;55.47;1.97;;;;;;;;;;5050283;28;21011;-69
2024/01/02 02:26:02;;;;;;;54.87;1.90;;;;;;;;;;5050513;28;20442;-69
2024/01/02 02:28:29;;;;;;;55.47;2.17;;;;;;;;;;5050574;28;20460;-69
2024/01/02 02:30:56;;;;;;;55.47;1.90;;;;;;;;;;5050897;28;20457;-70
2024/01/02 02:33:23;;;;;;;55.50;2.07;;;;;;;;;;5052893;28;20473;-69
2024/01/02 02:35:50;;;;;;;55.60;2.53;;;;;;;;;;5053808;28;20490;-70
2024/01/02 02:38:17;;;;;;;55.37;2.03;;;;;;;;;;5054114;28;21002;-70
2024/01/02 02:40:46;;;;;;;55.33;2.13;;;;;;;;;;5053138;28;20826;-70
2024/01/02 02:43:13;;;;;;;55.57;1.93;;;;;;;;;;5051484;28;20470;-70
2024/01/02 02:45:40;;;;;;;55.47;1.90;;;;;;;;;;5053576;28;20923;-70
2024/01/02 02:48:08;;;;;;;55.40;2.07;;;;;;;;;;5054332;28;20460;-70
2024/01/02 02:50:35;;;;;;;55.47;2.20;;;;;;;;;;5053629;28;20463;-70
2024/01/02 02:53:03;;;;;;;55.40;2.00;;;;;;;;;;5053899;28;20467;-70
2024/01/02 02:55:30;;;;;;;55.23;2.03;;;;;;;;;;5053528;28;20483;-70
2024/01/02 02:57:58;;;;;;;55.60;2.40;;;;;;;;;;5053638;28;20447;-70
2024/01/02 03:00:25;;;;;;;55.40;2.20;;;;;;;;;;5053581;28;20865;-70
2024/01/02 03:02:52;;;;;;;56.00;2.30;;;;;;;;;;5053474;28;20474;-69
2024/01/02 03:05:19;;;;;;;55.30;2.00;;;;;;;;;;5053640;28;20449;-70
2024/01/02 03:07:47;;;;;;;55.30;2.20;;;;;;;;;;5053047;28;20463;-70
2024/01/02 03:10:17;;;;;;;55.50;2.00;;;;;;;;;;5053419;28;20457;-70
2024/01/02 03:12:45;;;;;;;55.27;2.00;;;;;;;;;;5053114;28;20558;-70
2024/01/02 03:15:14;;;;;;;55.37;2.30;;;;;;;;;;5053169;28;20493;-70
2024/01/02 03:17:41;;;;;;;55.30;1.90;;;;;;;;;;5053184;28;20474;-69
2024/01/02 03:20:09;;;;;;;55.33;1.80;;;;;;;;;;5053288;28;20949;-69
2024/01/02 03:22:36;;;;;;;55.50;1.97;;;;;;;;;;5053040;28;20986;-70
2024/01/02 03:25:04;;;;;;;55.70;1.90;;;;;;;;;;5052936;28;20444;-69
2024/01/02 03:27:32;;;;;;;55.57;2.10;;;;;;;;;;5053279;28;20482;-69
2024/01/02 03:29:59;;;;;;;55.40;1.73;;;;;;;;;;5053264;28;20461;-69
2024/01/02 03:32:27;;;;;;;55.47;2.30;;;;;;;;;;5053013;28;20471;-70
2024/01/02 03:34:54;;;;;;;55.60;2.13;;;;;;;;;;5052856;28;20540;-69
2024/01/02 03:37:21;;;;;;;55.37;2.00;;;;;;;;;;5053048;28;20445;-69
2024/01/02 03:39:48;;;;;;;55.37;2.23;;;;;;;;;;5052802;28;20454;-70
2024/01/02 03:42:15;;;;;;;55.60;2.30;;;;;;;;;;5052725;28;20451;-69
2024/01/02 03:44:42;;;;;;;55.33;2.07;;;;;;;;;;5052350;28;20451;-69
2024/01/02 03:47:10;;;;;;;55.60;2.10;;;;;;;;;;5052983;28;20835;-69
2024/01/02 03:49:38;;;;;;;55.53;2.13;;;;;;;;;;5052867;28;20459;-69
2024/01/02 03:52:05;;;;;;;55.60;2.20;;;;;;;;;;5052688;28;20459;-69
2024/01/02 03:54:32;;;;;;;55.70;2.50;;;;;;;;;;5052662;28;20463;-69
2024/01/02 03:56:59;;;;;;;55.63;2.40;;;;;;;;;;5052799;28;20454;-69
2024/01/02 03:59:27;;;;;;;55.57;2.20;;;;;;;;;;5052529;28;20457;-69
2024/01/02 04:01:54;;;;;;;55.47;2.17;;;;;;;;;;5052606;28;20670;-69
2024/01/02 04:04:22;;;;;;;56.10;2.93;;;;;;;;;;5052216;28;20828;-69
2024/01/02 04:06:50;;;;;;;55.67;2.30;;;;;;;;;;5052242;28;20450;-69
2024/01/02 04:09:17;;;;;;;55.70;2.00;;;;;;;;;;5052780;28;20448;-69
2024/01/02 04:11:44;;;;;;;55.57;2.10;;;;;;;;;;5052309;28;20558;-69
2024/01/02 04:14:11;;;;;;;55.57;2.10;;;;;;;;;;5052082;28;20979;-69
2024/01/02 04:16:38;;;;;;;55.60;1.90;;;;;;;;;;5052132;28;20487;-69
2024/01/02 04:19:05;;;;;;;55.47;2.10;;;;;;;;;;5052335;28;20452;-69
2024/01/02 04:21:32;;;;;;;55.40;2.00;;;;;;;;;;5052099;28;20462;-69
2024/01/02 04:24:01;;;;;;;55.37;1.80;;;;;;;;;;5051814;28;20498;-69
2024/01/02 04:26:28;;;;;;;55.50;1.97;;;;;;;;;;5051937;28;20450;-69
2024/01/02 04:28:55;;;;;;;55.57;2.10;;;;;;;;;;5051814;28;20459;-69
2024/01/02 04:31:22;;;;;;;55.43;2.30;;;;;;;;;;5051959;28;20458;-69
2024/01/02 04:33:49;;;;;;;55.37;2.00;;;;;;;;;;5051447;28;20474;-69
2024/01/02 04:36:16;;;;;;;55.60;2.20;;;;;;;;;;5051624;28;20491;-69
2024/01/02 04:38:43;;;;;;;55.60;2.07;;;;;;;;;;5051593;28;20459;-69
2024/01/02 04:41:13;;;;;;;55.90;2.70;;;;;;;;;;5051830;28;20836;-69
2024/01/02 04:43:40;;;;;;;55.80;2.40;;;;;;;;;;5051415;28;20502;-69
2024/01/02 04:46:07;;;;;;;55.63;2.37;;;;;;;;;;5051180;28;20456;-69
2024/01/02 04:48:34;;;;;;;55.60;1.90;;;;;;;;;;5051248;28;20450;-69
2024/01/02 04:51:01;;;;;;;55.67;2.23;;;;;;;;;;5051635;28;20450;-69
2024/01/02 04:53:28;;;;;;;56.10;2.97;;;;;;;;;;5051543;28;20470;-69
2024/01/02 04:55:55;;;;;;;55.60;2.30;;;;;;;;;;5050417;28;20878;-69
2024/01/02 04:58:23;;;;;;;55.50;2.30;;;;;;;;;;5051537;28;20466;-69
2024/01/02 05:00:50;;;;;;;55.47;2.27;;;;;;;;;;5051209;28;20459;-69
2024/01/02 05:03:18;;;;;;;55.80;2.30;;;;;;;;;;5051292;28;20469;-69
2024/01/02 05:05:45;;;;;;;55.50;2.50;;;;;;;;;;5051310;28;20454;-69
2024/01/02 05:08:12;;;;;;;55.60;2.30;;;;;;;;;;5051027;28;20462;-69
2024/01/02 05:10:39;;;;;;;55.57;2.50;;;;;;;;;;5051085;28;20959;-69
2024/01/02 05:13:07;;;;;;;55.50;2.57;;;;;;;;;;5051186;28;20496;-69
2024/01/02 05:15:35;;;;;;;55.80;2.57;;;;;;;;;;5050917;28;20998;-69
2024/01/02 05:18:02;;;;;;;55.23;2.00;;;;;;;;;;5051034;28;20457;-69
2024/01/02 05:20:29;;;;;;;55.53;2.20;;;;;;;;;;5051274;28;20454;-69
2024/01/02 05:23:01;;;;;;;55.77;2.40;;;;;;;;;;5050722;28;20476;-69
2024/01/02 05:25:28;;;;;;;55.67;2.33;;;;;;;;;;5050960;28;20902;-69
2024/01/02 05:27:56;;;;;;;55.53;2.40;;;;;;;;;;5050948;28;20455;-69
2024/01/02 05:30:23;;;;;;;55.40;2.20;;;;;;;;;;5051003;28;20457;-69
2024/01/02 05:32:51;;;;;;;55.40;2.17;;;;;;;;;;5050967;28;20569;-69
2024/01/02 05:35:19;;;;;;;55.37;2.50;;;;;;;;;;5050806;28;20451;-69
2024/01/02 05:37:46;;;;;;;55.47;2.40;;;;;;;;;;5050442;28;20472;-69
2024/01/02 05:40:13;;;;;;;55.27;2.07;;;;;;;;;;5050781;28;20447;-69
2024/01/02 05:42:40;;;;;;;55.33;2.07;;;;;;;;;;5050409;28;20475;-69
2024/01/02 05:45:08;;;;;;;55.57;2.17;;;;;;;;;;5050803;28;20443;-70
2024/01/02 05:47:35;;;;;;;55.57;2.23;;;;;;;;;;5050992;28;20452;-70
2024/01/02 05:50:04;;;;;;;55.50;2.63;;;;;;;;;;5050840;28;20948;-70
2024/01/02 05:52:31;;;;;;;55.40;2.00;;;;;;;;;;5050769;28;20473;-70
2024/01/02 05:54:58;;;;;;;55.50;2.10;;;;;;;;;;5049694;28;20444;-70
2024/01/02 05:57:25;;;;;;;55.60;2.40;;;;;;;;;;5050704;28;21014;-70
2024/01/02 05:59:52;;;;;;;55.60;2.40;;;;;;;;;;5051106;28;20814;-70
2024/01/02 06:02:19;;;;;;;55.57;2.70;;;;;;;;;;5050830;28;20458;-70
2024/01/02 06:04:46;;;;;;;55.47;2.20;;;;;;;;;;5050242;28;20451;-70
2024/01/02 06:07:14;;;;;;;55.67;2.40;;;;;;;;;;5051115;28;20453;-70
2024/01/02 06:09:41;;;;;;;55.47;2.10;;;;;;;;;;5054583;28;20461;-70
2024/01/02 06:12:09;;;;;;;55.70;2.40;;;;;;;;;;5054733;28;20813;-70
2024/01/02 06:14:37;;;;;;;55.33;2.20;;;;;;;;;;5054333;28;20508;-69
2024/01/02 06:17:04;;;;;;;55.60;2.10;;;;;;;;;;5046189;28;20490;-70
2024/01/02 06:19:31;;;;;;;55.37;2.10;;;;;;;;;;5054739;28;20457;-70
2024/01/02 06:21:58;;;;;;;55.50;2.50;;;;;;;;;;5054262;28;20465;-70
2024/01/02 06:24:27;;;;;;;55.47;2.00;;;;;;;;;;5054230;28;20455;-70
2024/01/02 06:26:54;;;;;;;55.50;2.10;;;;;;;;;;5054379;28;20453;-70
2024/01/02 06:29:21;;;;;;;55.50;2.47;;;;;;;;;;5054279;28;20453;-70
2024/01/02 06:31:48;;;;;;;55.47;2.40;;;;;;;;;;5054069;28;20450;-70
2024/01/02 06:34:15;;;;;;;55.63;2.40;;;;;;;;;;5054081;28;20467;-70
2024/01/02 06:36:42;;;;;;;55.67;2.60;;;;;;;;;;5053387;28;21006;-70
2024/01/02 06:39:09;;;;;;;55.50;2.30;;;;;;;;;;5054242;28;20457;-70
2024/01/02 06:41:38;;;;;;;55.57;2.47;;;;;;;;;;5057013;28;20464;-70
2024/01/02 06:44:05;;;;;;;55.50;2.20;;;;;;;;;;5060967;28;20467;-70
2024/01/02 06:46:32;;;;;;;55.30;1.80;;;;;;;;;;5060678;28;20459;-70
2024/01/02 06:48:59;;;;;;;55.57;2.30;;;;;;;;;;5061896;28;20454;-70
2024/01/02 06:51:29;;;;;;;55.60;2.50;;;;;;;;;;5063690;28;20461;-70
2024/01/02 06:53:56;;;;;;;55.53;2.63;;;;;;;;;;5053800;28;20471;-70
2024/01/02 06:56:23;;;;;;;55.37;2.10;;;;;;;;;;5054038;28;20491;-70
2024/01/02 06:58:51;;;;;;;55.37;2.17;;;;;;;;;;5053635;28;20447;-70
2024/01/02 07:01:18;;;;;;;55.50;2.23;;;;;;;;;;5053906;28;20449;-70
2024/01/02 07:03:45;;;;;;;55.50;2.30;;;;;;;;;;5054009;28;20467;-70
2024/01/02 07:06:12;;;;;;;55.27;2.27;;;;;;;;;;5054258;28;20445;-70
2024/01/02 07:08:40;;;;;;;55.60;2.10;;;;;;;;;;5053630;28;20454;-70
2024/01/02 07:11:07;;;;;;;55.47;2.00;;;;;;;;;;5053356;28;20461;-70
2024/01/02 07:13:34;;;;;;;55.40;2.20;;;;;;;;;;5053413;28;20686;-70
2024/01/02 07:16:03;;;;;;;55.60;2.07;;;;;;;;;;5053121;28;20493;-69
2024/01/02 07:18:30;;;;;;;55.60;2.33;;;;;;;;;;5052878;28;20447;-70
2024/01/02 07:20:57;;;;;;;55.47;2.17;;;;;;;;;;5052738;28;20447;-70
2024/01/02 07:23:25;;;;;;;55.60;2.53;;;;;;;;;;5053309;28;20469;-70
2024/01/02 07:25:52;;;;;;;55.43;2.20;;;;;;;;;;5053246;28;20451;-70
2024/01/02 07:28:19;;;;;;;55.37;2.10;;;;;;;;;;5053341;28;20459;-70
2024/01/02 07:30:48;;;;;;;55.43;2.30;;;;;;;;;;5053079;28;20452;-70
2024/01/02 07:33:16;;;;;;;55.20;2.00;;;;;;;;;;5052827;28;20984;-70
2024/01/02 07:35:43;;;;;;;55.37;2.17;;;;;;;;;;5052940;28;20540;-70
2024/01/02 07:38:10;;;;;;;55.47;2.30;;;;;;;;;;5053144;28;20452;-70
2024/01/02 07:40:37;;;;;;;55.47;2.30;;;;;;;;;;5053298;28;20444;-70
2024/01/02 07:43:05;;;;;;;55.37;2.20;;;;;;;;;;5052959;28;20472;-70
2024/01/02 07:45:32;;;;;;;55.37;2.20;;;;;;;;;;5052747;28;20550;-70
2024/01/02 07:47:59;;;;;;;55.27;2.10;;;;;;;;;;5053065;28;20789;-70
2024/01/02 07:50:27;;;;;;;55.47;2.10;;;;;;;;;;5053026;28;20450;-70
2024/01/02 07:52:54;;;;;;;55.40;2.10;;;;;;;;;;5052642;28;20478;-70
2024/01/02 07:55:21;;;;;;;55.53;2.30;;;;;;;;;;5052770;28;20443;-70
2024/01/02 07:57:49;;;;;;;55.37;2.00;;;;;;;;;;5052555;28;20490;-70
2024/01/02 08:00:16;;;;;;;55.27;2.03;;;;;;;;;;5052470;28;20447;-70
2024/01/02 08:02:43;;;;;;;55.77;2.30;;;;;;;;;;5052929;28;20496;-70
2024/01/02 08:05:10;;;;;;;55.30;2.07;;;;;;;;;;5052799;28;20451;-70
2024/01/02 08:07:39;;;;;;;55.43;2.43;;;;;;;;;;5053015;28;20443;-70
2024/01/02 08:10:07;;;;;;;55.27;2.20;;;;;;;;;;5052582;28;20469;-70
2024/01/02 08:12:34;;;;;;;55.37;2.10;;;;;;;;;;5052393;28;20478;-70
2024/01/02 08:15:01;;;;;;;55.20;1.80;;;;;;;;;;5052004;28;20447;-70
2024/01/02 08:17:28;;;;;;;55.70;2.53;;;;;;;;;;5052267;28;20545;-70
2024/01/02 08:19:55;;;;;;;55.50;2.17;;;;;;;;;;5052610;28;20467;-70
2024/01/02 08:22:22;;;;;;;55.37;2.13;;;;;;;;;;5052524;28;20556;-70
2024/01/02 08:24:51;;;;;;;55.47;2.17;;;;;;;;;;5052086;28;20458;-70
2024/01/02 08:27:19;;;;;;;55.57;2.10;;;;;;;;;;5051925;28;20941;-70
2024/01/02 08:29:46;;;;;;;55.70;2.33;;;;;;;;;;5052288;28;20509;-70
2024/01/02 08:32:13;;;;;;;55.47;2.10;;;;;;;;;;5051912;28;20455;-70
2024/01/02 08:34:40;;;;;;;55.50;2.33;;;;;;;;;;5051837;28;20450;-70
2024/01/02 08:37:07;;;;;;;55.60;2.20;;;;;;;;;;5050788;28;20537;-70
2024/01/02 08:39:34;;;;;;;55.53;1.83;;;;;;;;;;5051841;28;20484;-70
2024/01/02 08:42:03;;;;;;;55.37;2.33;;;;;;;;;;5051613;28;20454;-70
2024/01/02 08:44:30;;;;;;;55.37;2.00;;;;;;;;;;5051718;28;20516;-70
2024/01/02 08:46:57;;;;;;;55.30;2.00;;;;;;;;;;5051171;28;20446;-70
2024/01/02 08:49:24;;;;;;;55.47;1.90;;;;;;;;;;5051863;28;20451;-70
2024/01/02 08:51:51;;;;;;;55.60;2.10;;;;;;;;;;5051466;28;20454;-70
2024/01/02 08:54:18;;;;;;;55.33;2.00;;;;;;;;;;5050624;28;20485;-70
2024/01/02 08:56:45;;;;;;;55.40;2.03;;;;;;;;;;5050881;28;20490;-70
2024/01/02 08:59:14;;;;;;;55.27;2.07;;;;;;;;;;5051307;28;20935;-70
2024/01/02 09:01:41;;;;;;;54.73;1.83;;;;;;;;;;5051574;28;20788;-70
2024/01/02 09:04:08;;;;;;;55.53;1.87;;;;;;;;;;5051086;28;20466;-70
2024/01/02 09:06:35;;;;;;;55.37;2.10;;;;;;;;;;5051419;28;20448;-70
2024/01/02 09:09:04;;;;;;;55.37;1.80;;;;;;;;;;5051277;28;20450;-70
2024/01/02 09:11:32;;;;;;;55.43;2.00;;;;;;;;;;5051725;28;20456;-70
2024/01/02 09:13:59;;;;;;;55.40;1.97;;;;;;;;;;5051025;28;20494;-70
2024/01/02 09:16:31;;;;;;;55.13;1.90;;;;;;;;;;5050882;28;20467;-69
2024/01/02 09:18:58;;;;;;;55.60;2.30;;;;;;;;;;5051325;28;20457;-70
2024/01/02 09:21:25;;;;;;;55.40;2.00;;;;;;;;;;5051180;28;20932;-70
2024/01/02 09:23:53;;;;;;;55.30;1.77;;;;;;;;;;5050849;28;20474;-69
2024/01/02 09:26:21;;;;;;;55.07;1.83;;;;;;;;;;5051380;28;20453;-70
2024/01/02 09:28:49;;;;;;;55.47;2.30;;;;;;;;;;5051133;28;20537;-69
2024/01/02 09:31:18;;;;;;;55.60;2.00;;;;;;;;;;5051069;28;20460;-70
2024/01/02 09:33:47;;;;;;;55.70;1.90;;;;;;;;;;5050747;28;20487;-69
2024/01/02 09:36:15;;;;;;;54.97;1.80;;;;;;;;;;5050914;28;20446;-70
2024/01/02 09:38:42;;;;;;;55.13;2.33;;;;;;;;;;5051226;28;20450;-69
2024/01/02 09:41:21;;;;;;;54.93;1.70;;;;;;;;;;5051214;28;20817;-69
2024/01/02 09:43:57;;;;;;;55.50;1.80;;;;;;;;;;5050178;28;20486;-69
2024/01/02 09:46:30;;;;;;;55.17;1.80;;;;;;;;;;5050800;28;20461;-70
2024/01/02 09:49:06;;;;;;;55.13;1.70;;;;;;;;;;5051236;28;20452;-70
2024/01/02 09:51:37;;;;;;;55.50;2.00;;;;;;;;;;5050817;28;20475;-70
2024/01/02 09:54:14;;;;;;;55.47;2.00;;;;;;;;;;5050763;28;20480;-70
2024/01/02 09:56:47;;;;;;;55.40;1.90;;;;;;;;;;5050757;28;20457;-70
2024/01/02 09:59:22;;;;;;;55.37;1.70;;;;;;;;;;5042955;28;20465;-70
2024/01/02 10:01:56;;;;;;;55.70;1.93;;;;;;;;;;5051172;28;20453;-69
2024/01/02 10:04:34;;;;;;;55.23;1.70;;;;;;;;;;5050562;28;20529;-70
2024/01/02 10:07:11;;;;;;;55.50;1.90;;;;;;;;;;5050402;28;20463;-70
2024/01/02 10:09:44;;;;;;;54.60;1.63;;;;;;;;;;5051004;28;20457;-70
2024/01/02 10:12:17;;;;;;;55.17;1.83;;;;;;;;;;5050539;28;20451;-71
2024/01/02 10:14:49;;;;;;;55.17;1.90;;;;;;;;;;5050540;28;20458;-70
2024/01/02 10:17:21;;;;;;;55.47;1.90;;;;;;;;;;5050396;28;21029;-70
2024/01/02 10:19:56;;;;;;;54.77;1.70;;;;;;;;;;5050569;28;20477;-70
2024/01/02 10:22:27;;;;;;;55.47;1.80;;;;;;;;;;5050460;28;20462;-70
2024/01/02 10:24:59;;;;;;;55.27;1.90;;;;;;;;;;5049923;28;20457;-70
2024/01/02 10:27:31;;;;;;;55.40;2.00;;;;;;;;;;5050415;28;20463;-71
2024/01/02 10:30:02;;;;;;;54.83;1.70;;;;;;;;;;5050458;28;20448;-70
2024/01/02 10:32:33;;;;;;;54.70;1.63;;;;;;;;;;5050296;28;20477;-70
2024/01/02 10:35:05;;;;;;;55.27;1.80;;;;;;;;;;5050567;28;20451;-71
2024/01/02 10:37:35;;;;;;;55.60;1.90;;;;;;;;;;5050445;28;20486;-71
2024/01/02 10:40:05;;;;;;;54.73;2.00;;;;;;;;;;5050286;28;20465;-71
2024/01/02 10:42:38;;;;;;;55.53;1.80;;;;;;;;;;5050137;28;20476;-70
2024/01/02 10:45:16;;;;;;;55.07;1.80;;;;;;;;;;5050394;28;20446;-70
2024/01/02 10:47:54;;;;;;;55.53;1.97;;;;;;;;;;5050490;28;20447;-68
2024/01/02 10:50:28;;;;;;;55.47;1.97;;;;;;;;;;5050320;28;20456;-70
2024/01/02 10:53:01;;;;;;;55.30;1.97;;;;;;;;;;5050229;28;21011;-70
2024/01/02 10:55:31;;;;;;;55.40;1.90;;;;;;;;;;5052299;28;20442;-71
2024/01/02 10:58:03;;;;;;;55.13;2.10;;;;;;;;;;5053701;28;21009;-71
2024/01/02 11:00:33;;;;;;;55.50;1.80;;;;;;;;;;5053736;28;20963;-70
2024/01/02 11:03:04;;;;;;;55.27;1.80;;;;;;;;;;5053786;28;20544;-70
2024/01/02 11:05:39;;;;;;;56.20;2.10;;;;;;;;;;5053434;28;20492;-70
2024/01/02 11:08:08;;;;;;;55.60;1.73;;;;;;;;;;5053552;28;20452;-71
2024/01/02 11:10:39;;;;;;;55.40;1.90;;;;;;;;;;5053665;28;20450;-70
2024/01/02 11:13:08;;;;;;;54.97;1.70;;;;;;;;;;5053887;28;20886;-71
2024/01/02 11:15:37;;;;;;;55.03;1.80;;;;;;;;;;5053359;28;20453;-70
2024/01/02 11:18:04;;;;;;;55.50;1.90;;;;;;;;;;5052972;28;20533;-71
2024/01/02 11:20:36;;;;;;;55.50;2.00;;;;;;;;;;5053430;28;20459;-70
2024/01/02 11:23:04;;;;;;;55.70;1.73;;;;;;;;;;5053389;28;20519;-70
2024/01/02 11:25:34;;;;;;;55.07;1.80;;;;;;;;;;5053170;28;20918;-70
2024/01/02 11:28:03;;;;;;;55.50;1.80;;;;;;;;;;5053118;28;20453;-70
2024/01/02 11:30:34;;;;;;;55.13;1.80;;;;;;;;;;5053107;28;20446;-71
2024/01/02 11:33:06;;;;;;;55.47;1.60;;;;;;;;;;5053356;28;20470;-71
2024/01/02 11:35:43;;;;;;;54.77;1.80;;;;;;;;;;5053026;28;20943;-71
2024/01/02 11:38:12;;;;;;;55.70;2.00;;;;;;;;;;5053138;28;20485;-70
2024/01/02 11:40:48;;;;;;;55.03;1.53;;;;;;;;;;5053060;28;20457;-72
2024/01/02 11:43:33;;;;;;;54.93;1.90;;;;;;;;;;5052774;28;20484;-70
2024/01/02 11:46:00;;;;;;;55.60;1.70;;;;;;;;;;5052775;28;20830;-70
2024/01/02 11:48:37;;;;;;;55.67;1.83;;;;;;;;;;5052845;28;20442;-70
2024/01/02 11:51:12;;;;;;;55.27;1.70;;;;;;;;;;5053258;28;20939;-70
2024/01/02 11:53:46;;;;;;;55.30;1.77;;;;;;;;;;5052409;28;20894;-69
2024/01/02 11:56:13;;;;;;;54.87;1.80;;;;;;;;;;5052546;28;20450;-70
2024/01/02 11:58:42;;;;;;;55.13;1.77;;;;;;;;;;5044316;28;20500;-71
2024/01/02 12:01:14;;;;;;;55.03;1.80;;;;;;;;;;5050937;28;20447;-70
2024/01/02 12:03:50;;;;;;;54.60;1.70;;;;;;;;;;5052021;28;20488;-70
2024/01/02 12:06:23;;;;;;;55.60;1.80;;;;;;;;;;5044134;28;20446;-70
2024/01/02 12:08:52;;;;;;;55.67;1.70;;;;;;;;;;5046728;28;20453;-71
2024/01/02 12:11:21;;;;;;;55.53;1.80;;;;;;;;;;5051855;28;20954;-71
2024/01/02 12:14:06;;;;;;;55.07;1.73;;;;;;;;;;5051912;28;20484;-70
2024/01/02 12:16:35;;;;;;;55.13;1.73;;;;;;;;;;5045518;28;20827;-71
2024/01/02 12:19:06;;;;;;;55.33;1.90;;;;;;;;;;5051896;28;20773;-70
2024/01/02 12:21:37;;;;;;;54.53;1.70;;;;;;;;;;5045698;28;20454;-70
2024/01/02 12:24:06;;;;;;;55.00;1.80;;;;;;;;;;5051552;28;20463;-69
2024/01/02 12:26:35;;;;;;;55.47;1.70;;;;;;;;;;5052177;28;20457;-70
2024/01/02 12:29:02;;;;;;;55.57;1.90;;;;;;;;;;5052850;28;20446;-70
2024/01/02 12:31:34;;;;;;;55.07;1.60;;;;;;;;;;5051795;28;20965;-71
2024/01/02 12:34:07;;;;;;;55.60;1.97;;;;;;;;;;5041705;28;20490;-70
2024/01/02 12:36:38;;;;;;;55.40;1.97;;;;;;;;;;5052004;28;20450;-71
2024/01/02 12:39:07;;;;;;;55.00;1.87;;;;;;;;;;5050941;28;20535;-70
2024/01/02 12:41:36;;;;;;;55.67;1.83;;;;;;;;;;5044006;28;20454;-70
2024/01/02 12:44:04;;;;;;;55.70;1.93;;;;;;;;;;5051486;28;20478;-70
2024/01/02 12:46:34;;;;;;;55.00;1.80;;;;;;;;;;5051617;28;20450;-70
2024/01/02 12:49:07;;;;;;;54.60;1.77;;;;;;;;;;5051795;28;20926;-70
2024/01/02 12:51:35;;;;;;;55.33;1.90;;;;;;;;;;5051773;28;20460;-70
2024/01/02 12:54:04;;;;;;;55.57;1.97;;;;;;;;;;5051217;28;20479;-70
2024/01/02 12:56:32;;;;;;;55.37;1.97;;;;;;;;;;5051472;28;21049;-70
2024/01/02 12:59:02;;;;;;;55.50;1.63;;;;;;;;;;5051682;28;20525;-71
2024/01/02 13:01:30;;;;;;;55.40;1.90;;;;;;;;;;5054359;28;20456;-71
2024/01/02 13:03:58;;;;;;;55.37;1.73;;;;;;;;;;5057522;28;20562;-70
2024/01/02 13:06:25;;;;;;;55.30;1.80;;;;;;;;;;5059201;28;20529;-70
2024/01/02 13:08:52;;;;;;;55.33;2.00;;;;;;;;;;5055064;28;20457;-71
2024/01/02 13:11:21;;;;;;;55.70;1.90;;;;;;;;;;5057277;28;20452;-70
2024/01/02 13:13:49;;;;;;;55.60;1.90;;;;;;;;;;5050981;28;20501;-70
2024/01/02 13:16:17;;;;;;;55.50;1.87;;;;;;;;;;5050695;28;20445;-71
2024/01/02 13:18:45;;;;;;;55.27;1.70;;;;;;;;;;5050624;28;20998;-70
2024/01/02 13:21:12;;;;;;;55.50;1.90;;;;;;;;;;5050909;28;20455;-71
2024/01/02 13:23:53;;;;;;;55.60;1.80;;;;;;;;;;5050530;28;20470;-70
2024/01/02 13:26:21;;;;;;;55.37;1.80;;;;;;;;;;5050937;28;20456;-70
2024/01/02 13:28:50;;;;;;;55.27;1.80;;;;;;;;;;5050964;28;20453;-71
2024/01/02 13:31:27;;;;;;;55.50;1.97;;;;;;;;;;5050672;28;20446;-70
2024/01/02 13:33:54;;;;;;;55.07;1.67;;;;;;;;;;5050830;28;20470;-70
2024/01/02 13:36:21;;;;;;;55.47;1.97;;;;;;;;;;5051114;28;20447;-70
2024/01/02 13:38:49;;;;;;;54.93;1.90;;;;;;;;;;5050789;28;20486;-70
2024/01/02 13:41:16;;;;;;;55.40;1.90;;;;;;;;;;5051115;28;20479;-70
2024/01/02 13:43:45;;;;;;;55.37;1.93;;;;;;;;;;5050468;28;20466;-71
2024/01/02 13:46:12;;;;;;;55.70;2.03;;;;;;;;;;5050464;28;20458;-70
2024/01/02 13:48:40;;;;;;;55.60;1.80;;;;;;;;;;5051091;28;20477;-70
2024/01/02 13:51:07;;;;;;;55.17;1.87;;;;;;;;;;5051364;28;20459;-71
2024/01/02 13:53:54;;;;;;;55.33;1.90;;;;;;;;;;5050720;28;20478;-71
2024/01/02 13:56:21;;;;;;;55.47;1.90;;;;;;;;;;5050565;28;20473;-70
2024/01/02 13:58:58;;;;;;;55.30;2.00;;;;;;;;;;5050810;28;20486;-70
2024/01/02 14:01:32;;;;;;;55.50;1.87;;;;;;;;;;5050620;28;20943;-70
2024/01/02 14:04:00;;;;;;;55.70;1.90;;;;;;;;;;5050230;28;20993;-71
2024/01/02 14:06:27;;;;;;;55.43;1.90;;;;;;;;;;5042721;28;20821;-72
2024/01/02 14:09:09;;;;;;;55.40;1.90;;;;;;;;;;5050458;28;20466;-72
2024/01/02 14:11:36;;;;;;;55.13;1.80;;;;;;;;;;5050841;28;20446;-71
2024/01/02 14:14:13;;;;;;;54.87;1.73;;;;;;;;;;5050154;28;20829;-71
2024/01/02 14:16:40;;;;;;;55.57;1.80;;;;;;;;;;5046382;28;20476;-70
2024/01/02 14:19:07;;;;;;;55.47;1.80;;;;;;;;;;5050241;28;20852;-69
2024/01/02 14:21:35;;;;;;;55.40;1.90;;;;;;;;;;5050156;28;20835;-70
2024/01/02 14:24:06;;;;;;;55.40;1.90;;;;;;;;;;5050051;28;20470;-69
2024/01/02 14:26:37;;;;;;;55.70;1.80;;;;;;;;;;5050224;28;20491;-71
2024/01/02 14:29:06;;;;;;;55.50;2.27;;;;;;;;;;5052133;28;20447;-71
2024/01/02 14:31:41;;;;;;;55.47;2.07;;;;;;;;;;5054261;28;20551;-70
2024/01/02 14:34:24;;;;;;;55.37;2.00;;;;;;;;;;5053962;28;20469;-70
2024/01/02 14:36:59;;;;;;;55.17;1.87;;;;;;;;;;5049898;28;20464;-70
2024/01/02 14:39:41;;;;;;;55.80;2.03;;;;;;;;;;5053984;28;20485;-70